Savannah, GA

10:32 AM EDT del 22 Maggio 2015 (GMT -0400)
Wright Army Air Field | | Change Station
CLOSE
Current Station
Aeroporto
Location: Ft. Stewart,
Altitudine: 46 ft
Stazioni meteo nelle vicinanze

Alt. 46 ft 31.89 °N, 81.56 °W | Updated 34 minutes ago

Molto nuvoloso
Molto nuvoloso
71 °F
Sembra 71 °F
N
0
Vento Variabile Vento da Nord

Oggi
Massima -- | Minima -- °F
--% Possibilità di precip.
Ieri
Massima -- | Minima -- °F
Precip. -- in
6:23 AM 8:20 PM
Luna crescente, 21% visible
Pressione 30.12 in
Visibilità 10.0 miglia
Nuvole Sereno
Punto di rugiada 55 °F
Umidità 57%
Piovosità 0.00 in
Spessore del manto nevoso Non disponibile.
Raggi UV 7 fuori da 12
Polline 5.80 fuori da 12
Qualità dell'aria Non disponibile.
Flu Activity Sporadic
METAR KLHW 221358Z AUTO 00000KT 10SM CLR 22/13 A3011 RMK AO2 SLP199 T02160127

More Conditions Fewer Conditions

Pressione 30.12 in
Visibilità 10.0 miglia
Nuvole Sereno
Punto di rugiada 55 °F
Umidità 57%
Piovosità 0.00 in
Spessore del manto nevoso Non disponibile.
Raggi UV 7 fuori da 12
Polline 5.80 fuori da 12
Qualità dell'aria Non disponibile.
Flu Activity Sporadic
METAR KLHW 221358Z AUTO 00000KT 10SM CLR 22/13 A3011 RMK AO2 SLP199 T02160127

More Conditions Fewer Conditions

10-Day Weather Forecast

Almanac

Astronomia

May. 22, 2015 Alba Tramonto
Ora attuale
Crepuscolo civile
Crepuscolo nautico
Crepuscolo astronomico
Luna
Estensione della luce visibile
Lunghezza del giorno
Tomorrow will be .
, % of the Moon is Illuminated

Gli estremi di oggi

State Highs State Lows

Community

WunderPhotos

Upload Photos

1,823,229 foto caricate!

WunderBlogs® & News

Nearby

Qualità dell'aria

  Qualità dell'aria Indice AQ Inquinante
Not available.

Profondità neve

Stazione Profondità Altitudine

Attività sismica

Città  Distanza Mag. Data & Ora
Minimo Magnitudo Mostrato è 2.5.

Temperature delle acque costiere

Località Temperatura

Stations

Stazioni meteo nelle vicinanze

Ubicazione della stazione Temp. Raffreddamento del vento Punto di rugiada Umidità Vento Precip. Alt. Aggiornato Tipo